Time;durP1;ratioP1;P1;durP2;ratioP2;P2;SDS_P1;SDS_P2;PMS_P1;PMS_P2;Temp;Humidity;BMP_temperature;BMP_pressure;BME280_temperature;BME280_humidity;BME280_pressure;Samples;Min_cycle;Max_cycle;Signal;HPM_P1;HPM_P2
2021/08/01 00:00:41;;;;;;;4.47;3.60;;;16.80;99.90;;;;;;5068384;28;20458;-68
2021/08/01 00:03:08;;;;;;;4.20;3.30;;;16.80;99.90;;;;;;5069586;28;20462;-68
2021/08/01 00:05:36;;;;;;;4.70;3.83;;;16.80;99.90;;;;;;5072437;28;20489;-68
2021/08/01 00:08:03;;;;;;;6.27;3.70;;;16.80;99.90;;;;;;5072966;28;20458;-68
2021/08/01 00:10:30;;;;;;;4.40;3.70;;;16.70;99.90;;;;;;5072054;28;20479;-68
2021/08/01 00:12:57;;;;;;;4.10;3.70;;;16.70;99.90;;;;;;5072657;28;20517;-68
2021/08/01 00:15:24;;;;;;;5.53;4.20;;;16.70;99.90;;;;;;5072473;28;20474;-68
2021/08/01 00:17:50;;;;;;;4.27;3.60;;;16.60;99.90;;;;;;5072552;28;20458;-68
2021/08/01 00:20:17;;;;;;;8.57;3.67;;;16.60;99.90;;;;;;5071853;28;20467;-68
2021/08/01 00:22:45;;;;;;;5.50;4.40;;;16.50;99.90;;;;;;5072566;28;20469;-68
2021/08/01 00:25:13;;;;;;;6.73;3.70;;;16.50;99.90;;;;;;5072367;28;20474;-67
2021/08/01 00:27:40;;;;;;;8.67;4.20;;;16.40;99.90;;;;;;5072434;28;20462;-68
2021/08/01 00:30:10;;;;;;;3.97;3.57;;;16.40;99.90;;;;;;5071898;28;20478;-68
2021/08/01 00:32:37;;;;;;;3.93;3.63;;;16.40;99.90;;;;;;5072236;28;20465;-68
2021/08/01 00:35:05;;;;;;;4.30;3.90;;;16.40;99.90;;;;;;5072242;28;20505;-68
2021/08/01 00:37:32;;;;;;;4.40;3.70;;;16.30;99.90;;;;;;5072095;28;20458;-68
2021/08/01 00:40:00;;;;;;;4.83;4.43;;;16.30;99.90;;;;;;5071769;28;20463;-68
2021/08/01 00:42:26;;;;;;;5.10;4.33;;;16.30;99.90;;;;;;5072295;28;20508;-68
2021/08/01 00:44:53;;;;;;;4.80;3.97;;;16.30;99.90;;;;;;5072038;28;20486;-68
2021/08/01 00:47:20;;;;;;;4.00;3.60;;;16.30;99.90;;;;;;5072036;28;20833;-68
2021/08/01 00:49:47;;;;;;;3.70;3.40;;;16.30;99.90;;;;;;5071719;28;20825;-68
2021/08/01 00:52:15;;;;;;;5.63;3.60;;;16.20;99.90;;;;;;5072116;28;20458;-68
2021/08/01 00:54:42;;;;;;;4.40;4.00;;;16.20;99.90;;;;;;5071762;28;20482;-68
2021/08/01 00:57:10;;;;;;;4.93;4.30;;;16.20;99.90;;;;;;5072062;28;20465;-68
2021/08/01 00:59:38;;;;;;;6.03;3.77;;;16.20;99.90;;;;;;5071140;28;20469;-68
2021/08/01 01:02:10;;;;;;;5.03;4.53;;;16.10;99.90;;;;;;5071918;28;20465;-68
2021/08/01 01:04:45;;;;;;;4.70;4.00;;;16.10;99.90;;;;;;5071689;28;20466;-68
2021/08/01 01:07:19;;;;;;;4.40;3.30;;;16.10;99.90;;;;;;5071741;28;20458;-67
2021/08/01 01:09:50;;;;;;;4.47;4.07;;;16.10;99.90;;;;;;5071351;28;20462;-67
2021/08/01 01:12:21;;;;;;;5.83;3.63;;;16.10;99.90;;;;;;5071364;28;20467;-68
2021/08/01 01:14:51;;;;;;;4.30;3.83;;;16.10;99.90;;;;;;5071535;28;20484;-68
2021/08/01 01:17:23;;;;;;;5.57;4.10;;;16.10;99.90;;;;;;5071497;28;20467;-68
2021/08/01 01:20:14;;;;;;;5.43;3.90;;;16.10;99.90;;;;;;5071214;28;20458;-68
2021/08/01 01:22:52;;;;;;;4.77;4.03;;;16.10;99.90;;;;;;5071247;28;20454;-68
2021/08/01 01:25:24;;;;;;;35.50;5.40;;;16.10;99.90;;;;;;5071357;28;20478;-68
2021/08/01 01:28:02;;;;;;;4.50;3.77;;;16.10;99.90;;;;;;5071381;28;20545;-68
2021/08/01 01:30:31;;;;;;;6.53;4.17;;;16.10;99.90;;;;;;5070525;28;20833;-68
2021/08/01 01:33:07;;;;;;;8.27;3.80;;;16.10;99.90;;;;;;5071024;28;20463;-68
2021/08/01 01:35:36;;;;;;;5.40;4.10;;;16.10;99.90;;;;;;5070972;28;20486;-68
2021/08/01 01:38:06;;;;;;;4.47;4.07;;;16.10;99.90;;;;;;5071162;28;20461;-68
2021/08/01 01:40:36;;;;;;;5.37;4.13;;;16.00;99.90;;;;;;5070508;28;20459;-68
2021/08/01 01:43:05;;;;;;;8.10;4.20;;;16.00;99.90;;;;;;5071268;28;20493;-68
2021/08/01 01:45:33;;;;;;;5.93;3.70;;;15.90;99.90;;;;;;5070830;28;20491;-68
2021/08/01 01:48:01;;;;;;;5.23;3.70;;;16.00;99.90;;;;;;5071011;28;20462;-68
2021/08/01 01:50:28;;;;;;;5.50;4.17;;;16.00;99.90;;;;;;5070130;28;20486;-68
2021/08/01 01:52:56;;;;;;;5.67;4.80;;;16.00;99.90;;;;;;5070845;28;20463;-68
2021/08/01 01:55:27;;;;;;;4.93;4.20;;;15.90;99.90;;;;;;5070632;28;20478;-68
2021/08/01 01:57:55;;;;;;;5.00;4.60;;;15.90;99.90;;;;;;5070932;28;20485;-68
2021/08/01 02:00:22;;;;;;;6.97;4.13;;;15.90;99.90;;;;;;5069994;28;20454;-68
2021/08/01 02:02:48;;;;;;;6.40;4.43;;;15.90;99.90;;;;;;5070722;28;20829;-68
2021/08/01 02:05:15;;;;;;;5.00;4.47;;;15.90;99.90;;;;;;5070311;28;20486;-68
2021/08/01 02:07:42;;;;;;;4.67;3.70;;;15.90;99.90;;;;;;5070799;28;20454;-68
2021/08/01 02:10:13;;;;;;;4.73;4.33;;;15.80;99.90;;;;;;5069867;28;20545;-67
2021/08/01 02:12:49;;;;;;;4.87;4.40;;;15.80;99.90;;;;;;5070410;28;20961;-68
2021/08/01 02:15:18;;;;;;;4.70;4.00;;;15.80;99.90;;;;;;5070089;28;20486;-68
2021/08/01 02:17:51;;;;;;;5.33;4.33;;;15.80;99.90;;;;;;5070484;28;20469;-68
2021/08/01 02:20:21;;;;;;;5.33;4.70;;;15.80;99.90;;;;;;5069791;28;20462;-68
2021/08/01 02:22:50;;;;;;;5.23;4.57;;;15.70;99.90;;;;;;5070373;28;20459;-68
2021/08/01 02:25:18;;;;;;;4.97;4.20;;;15.70;99.90;;;;;;5070107;28;20483;-68
2021/08/01 02:27:48;;;;;;;5.40;4.90;;;15.70;99.90;;;;;;5069830;28;20466;-68
2021/08/01 02:30:15;;;;;;;5.27;4.40;;;15.70;99.90;;;;;;5069432;28;20466;-68
2021/08/01 02:32:42;;;;;;;5.27;4.50;;;15.70;99.90;;;;;;5069902;28;20466;-68
2021/08/01 02:35:11;;;;;;;4.70;4.30;;;15.70;99.90;;;;;;5070125;28;20857;-68
2021/08/01 02:37:39;;;;;;;5.00;4.23;;;15.70;99.90;;;;;;5069993;28;20462;-68
2021/08/01 02:40:07;;;;;;;5.70;4.00;;;15.60;99.90;;;;;;5069796;28;20508;-68
2021/08/01 02:42:35;;;;;;;5.10;4.00;;;15.70;99.90;;;;;;5069533;28;20469;-68
2021/08/01 02:45:03;;;;;;;8.33;4.40;;;15.70;99.90;;;;;;5069898;28;20479;-68
2021/08/01 02:47:32;;;;;;;4.97;4.23;;;15.70;99.90;;;;;;5069905;28;20878;-67
2021/08/01 02:50:00;;;;;;;4.43;4.03;;;15.70;99.90;;;;;;5069508;28;20467;-68
2021/08/01 02:52:30;;;;;;;4.23;3.83;;;15.70;99.90;;;;;;5069540;28;20490;-68
2021/08/01 02:55:02;;;;;;;4.50;4.10;;;15.70;99.90;;;;;;5069037;28;20517;-68
2021/08/01 02:57:31;;;;;;;5.37;4.80;;;15.70;99.90;;;;;;5067674;28;20460;-68
2021/08/01 03:00:00;;;;;;;4.37;3.83;;;15.70;99.90;;;;;;5069041;28;20466;-68
2021/08/01 03:02:29;;;;;;;5.13;4.10;;;15.60;99.90;;;;;;5069759;28;20516;-68
2021/08/01 03:04:57;;;;;;;7.40;4.23;;;15.60;99.90;;;;;;5069229;28;20486;-68
2021/08/01 03:07:25;;;;;;;5.93;4.10;;;15.60;99.90;;;;;;5069668;28;20807;-68
2021/08/01 03:09:54;;;;;;;4.50;4.10;;;15.60;99.90;;;;;;5068881;28;20466;-68
2021/08/01 03:12:21;;;;;;;3.97;3.57;;;15.60;99.90;;;;;;5069598;28;20482;-68
2021/08/01 03:14:48;;;;;;;4.23;3.87;;;15.60;99.90;;;;;;5069340;28;20479;-68
2021/08/01 03:17:15;;;;;;;4.50;4.10;;;15.60;99.90;;;;;;5069402;28;20954;-68
2021/08/01 03:19:43;;;;;;;5.27;4.03;;;15.60;99.90;;;;;;5068846;28;20466;-68
2021/08/01 03:22:09;;;;;;;6.30;4.27;;;15.60;99.90;;;;;;5069421;28;20454;-68
2021/08/01 03:24:37;;;;;;;4.07;3.73;;;15.60;99.90;;;;;;5069331;28;20467;-68
2021/08/01 03:27:04;;;;;;;4.70;4.30;;;15.60;99.90;;;;;;5069388;28;20469;-68
2021/08/01 03:29:30;;;;;;;4.10;3.70;;;15.60;99.90;;;;;;5068911;28;20473;-68
2021/08/01 03:31:57;;;;;;;5.00;4.20;;;15.60;99.90;;;;;;5069202;28;20486;-68
2021/08/01 03:34:24;;;;;;;4.67;4.10;;;15.60;99.90;;;;;;5069403;28;20458;-68
2021/08/01 03:36:52;;;;;;;4.37;3.97;;;15.60;99.90;;;;;;5069254;28;20470;-68
2021/08/01 03:39:19;;;;;;;4.37;3.97;;;15.60;99.90;;;;;;5071352;28;20488;-68
2021/08/01 03:41:45;;;;;;;4.60;4.20;;;15.50;99.90;;;;;;5073279;28;20450;-68
2021/08/01 03:44:12;;;;;;;4.20;3.80;;;15.50;99.90;;;;;;5073207;28;20914;-68
2021/08/01 03:46:39;;;;;;;4.60;4.20;;;15.50;99.90;;;;;;5073030;28;20859;-69
2021/08/01 03:49:06;;;;;;;4.97;4.13;;;15.50;99.90;;;;;;5072948;28;20481;-67
2021/08/01 03:51:33;;;;;;;7.73;4.20;;;15.50;99.90;;;;;;5072920;28;21009;-68
2021/08/01 03:54:01;;;;;;;4.90;4.00;;;15.50;99.90;;;;;;5072956;28;20466;-68
2021/08/01 03:56:27;;;;;;;4.60;4.20;;;15.50;99.90;;;;;;5072798;28;20485;-68
2021/08/01 03:58:55;;;;;;;4.97;4.57;;;15.50;99.90;;;;;;5073036;28;20458;-67
2021/08/01 04:01:22;;;;;;;4.50;4.10;;;15.40;99.90;;;;;;5072574;28;20469;-68
2021/08/01 04:03:49;;;;;;;4.83;4.37;;;15.40;99.90;;;;;;5072826;28;21025;-68
2021/08/01 04:06:15;;;;;;;4.83;4.33;;;15.40;99.90;;;;;;5073034;28;20486;-68
2021/08/01 04:08:42;;;;;;;4.67;4.00;;;15.40;99.90;;;;;;5073108;28;20469;-67
2021/08/01 04:11:10;;;;;;;4.73;4.23;;;15.40;99.90;;;;;;5072168;28;20829;-68
2021/08/01 04:13:37;;;;;;;4.27;3.87;;;15.40;99.90;;;;;;5072661;28;20462;-68
2021/08/01 04:16:04;;;;;;;6.13;4.53;;;15.40;99.90;;;;;;5072455;28;20478;-68
2021/08/01 04:18:31;;;;;;;6.03;4.97;;;15.40;99.90;;;;;;5072955;28;20466;-68
2021/08/01 04:20:57;;;;;;;7.10;4.95;;;15.40;99.90;;;;;;5071147;28;20908;-69
2021/08/01 04:23:24;;;;;;;5.67;4.37;;;15.40;99.90;;;;;;5072559;28;20235;-69
2021/08/01 04:25:51;;;;;;;4.27;3.90;;;15.40;99.90;;;;;;5072450;28;20489;-68
2021/08/01 04:28:19;;;;;;;5.00;4.50;;;15.40;99.90;;;;;;5072323;28;20473;-69
2021/08/01 04:30:46;;;;;;;5.83;4.40;;;15.40;99.90;;;;;;5071761;28;20838;-69
2021/08/01 04:33:12;;;;;;;5.10;4.70;;;15.40;99.90;;;;;;5065508;28;20468;-67
2021/08/01 04:35:39;;;;;;;5.40;4.27;;;15.40;99.90;;;;;;5052114;28;20490;-67
2021/08/01 04:38:06;;;;;;;5.40;4.00;;;15.40;99.90;;;;;;5051610;28;20466;-67
2021/08/01 04:40:32;;;;;;;4.63;4.23;;;15.30;99.90;;;;;;5051764;28;20463;-67
2021/08/01 04:42:59;;;;;;;4.33;4.00;;;15.30;99.90;;;;;;5051675;28;20463;-67
2021/08/01 04:45:27;;;;;;;4.40;4.00;;;15.30;99.90;;;;;;5051312;28;20483;-67
2021/08/01 04:47:54;;;;;;;5.83;4.07;;;15.30;99.90;;;;;;5051429;28;20467;-67
2021/08/01 04:50:20;;;;;;;5.27;4.57;;;15.30;99.90;;;;;;5050905;28;21054;-67
2021/08/01 04:52:49;;;;;;;4.63;3.97;;;15.30;99.90;;;;;;5051534;28;21009;-67
2021/08/01 04:55:16;;;;;;;4.20;3.73;;;15.30;99.90;;;;;;5051333;28;20491;-67
2021/08/01 04:57:43;;;;;;;4.50;4.10;;;15.20;99.90;;;;;;5051450;28;20494;-67
2021/08/01 05:00:10;;;;;;;4.57;4.10;;;15.20;99.90;;;;;;5050562;28;20815;-67
2021/08/01 05:02:38;;;;;;;3.77;3.43;;;15.30;99.90;;;;;;5051486;28;20456;-66
2021/08/01 05:05:06;;;;;;;4.13;3.83;;;15.30;99.90;;;;;;5051010;28;21014;-67
2021/08/01 05:07:33;;;;;;;4.27;3.80;;;15.30;99.90;;;;;;5051135;28;20467;-67
2021/08/01 05:10:01;;;;;;;3.97;3.67;;;15.20;99.90;;;;;;5050701;28;20978;-67
2021/08/01 05:12:28;;;;;;;11.70;4.07;;;15.20;99.90;;;;;;5051083;28;20479;-67
2021/08/01 05:14:54;;;;;;;5.50;3.80;;;15.20;99.90;;;;;;5050772;28;20489;-67
2021/08/01 05:17:21;;;;;;;4.33;3.53;;;15.20;99.90;;;;;;5050779;28;20465;-67
2021/08/01 05:19:49;;;;;;;5.93;4.20;;;15.20;99.90;;;;;;5050585;28;20459;-67
2021/08/01 05:22:16;;;;;;;4.70;4.30;;;15.30;99.90;;;;;;5050793;28;20977;-67
2021/08/01 05:24:43;;;;;;;6.70;4.60;;;15.30;99.90;;;;;;5051191;28;20483;-67
2021/08/01 05:27:10;;;;;;;4.53;4.13;;;15.30;99.90;;;;;;5050578;28;20472;-67
2021/08/01 05:29:37;;;;;;;4.83;4.43;;;15.30;99.90;;;;;;5050346;28;20463;-67
2021/08/01 05:32:04;;;;;;;4.33;3.93;;;15.30;99.90;;;;;;5132353;22;20498;-75
2021/08/01 05:34:31;;;;;;;3.67;3.40;;;15.30;99.90;;;;;;5089898;28;20457;-75
2021/08/01 05:36:59;;;;;;;5.90;4.30;;;15.30;99.90;;;;;;5090587;28;20461;-75
2021/08/01 05:39:26;;;;;;;4.03;3.73;;;15.40;99.90;;;;;;5089114;28;20461;-74
2021/08/01 05:41:53;;;;;;;5.13;3.93;;;15.40;99.90;;;;;;5050781;28;20467;-75
2021/08/01 05:44:20;;;;;;;3.80;3.57;;;15.40;99.90;;;;;;5050695;28;20468;-75
2021/08/01 05:46:46;;;;;;;4.20;3.90;;;15.50;99.90;;;;;;5050649;28;20773;-75
2021/08/01 05:49:13;;;;;;;4.53;4.13;;;15.50;99.90;;;;;;5050431;28;20485;-74
2021/08/01 05:51:40;;;;;;;4.23;3.90;;;15.50;99.90;;;;;;5050812;28;20518;-75
2021/08/01 05:54:08;;;;;;;5.40;4.07;;;15.50;99.90;;;;;;5050601;28;20471;-75
2021/08/01 05:56:35;;;;;;;3.80;3.50;;;15.50;99.90;;;;;;5050161;28;20488;-75
2021/08/01 05:59:01;;;;;;;6.63;4.00;;;15.60;99.90;;;;;;5050312;28;20498;-74
2021/08/01 06:01:28;;;;;;;4.23;3.93;;;15.60;99.90;;;;;;5049600;28;20498;-74
2021/08/01 06:03:55;;;;;;;5.40;4.10;;;15.60;99.90;;;;;;5050089;28;20471;-75
2021/08/01 06:06:23;;;;;;;4.03;3.63;;;15.60;99.90;;;;;;5050345;28;20491;-75
2021/08/01 06:08:51;;;;;;;3.40;3.10;;;15.70;99.90;;;;;;5050139;28;20979;-74
2021/08/01 06:11:21;;;;;;;4.57;4.17;;;15.70;99.90;;;;;;5049721;28;20455;-75
2021/08/01 06:13:48;;;;;;;3.63;3.33;;;15.70;99.90;;;;;;5049638;28;20958;-75
2021/08/01 06:16:16;;;;;;;4.53;4.13;;;15.70;99.90;;;;;;5049887;28;20492;-74
2021/08/01 06:18:44;;;;;;;4.43;4.03;;;15.70;99.90;;;;;;5050239;28;20829;-75
2021/08/01 06:21:16;;;;;;;5.03;4.00;;;15.70;99.90;;;;;;5049293;28;20463;-75
2021/08/01 06:23:43;;;;;;;5.43;4.10;;;15.70;99.90;;;;;;5050112;28;20455;-75
2021/08/01 06:26:11;;;;;;;4.70;4.20;;;15.70;99.90;;;;;;5049767;28;20997;-74
2021/08/01 06:28:39;;;;;;;4.90;4.50;;;15.70;99.90;;;;;;5049968;28;20463;-75
2021/08/01 06:31:07;;;;;;;5.93;4.30;;;15.70;99.90;;;;;;5048624;28;20504;-75
2021/08/01 06:33:34;;;;;;;4.40;4.10;;;15.70;99.90;;;;;;5049369;28;20483;-75
2021/08/01 06:36:05;;;;;;;4.80;4.30;;;15.70;99.90;;;;;;5049046;28;20495;-75
2021/08/01 06:38:32;;;;;;;6.13;4.03;;;15.70;99.90;;;;;;5049694;28;20822;-75
2021/08/01 06:40:59;;;;;;;4.53;3.97;;;15.80;99.90;;;;;;5049061;28;20491;-74
2021/08/01 06:43:25;;;;;;;5.87;4.70;;;15.80;99.90;;;;;;5049351;28;20463;-74
2021/08/01 06:45:53;;;;;;;4.70;4.27;;;15.80;99.90;;;;;;5050406;28;20486;-75
2021/08/01 06:48:20;;;;;;;4.47;4.07;;;15.80;99.90;;;;;;5049589;28;20471;-74
2021/08/01 06:50:47;;;;;;;8.37;4.87;;;15.90;99.90;;;;;;5048891;28;20459;-74
2021/08/01 06:53:14;;;;;;;4.57;4.17;;;15.90;99.90;;;;;;5049031;28;20582;-74
2021/08/01 06:55:41;;;;;;;4.20;3.80;;;15.90;99.90;;;;;;5049451;28;20555;-75
2021/08/01 06:58:07;;;;;;;4.50;3.97;;;16.00;99.90;;;;;;5049158;28;20812;-75
2021/08/01 07:00:34;;;;;;;4.90;4.40;;;16.00;99.90;;;;;;5048627;28;20463;-73
2021/08/01 07:03:03;;;;;;;4.40;4.00;;;16.00;99.90;;;;;;5048675;28;20459;-75
2021/08/01 07:05:31;;;;;;;4.30;3.90;;;16.00;99.90;;;;;;5049130;28;20487;-74
2021/08/01 07:07:57;;;;;;;5.40;4.00;;;16.00;99.90;;;;;;5048940;28;20471;-75
2021/08/01 07:10:25;;;;;;;6.30;4.73;;;16.10;99.90;;;;;;5048405;28;20462;-75
2021/08/01 07:12:52;;;;;;;4.23;3.93;;;16.10;99.90;;;;;;5048429;28;21006;-75
2021/08/01 07:15:23;;;;;;;4.37;3.93;;;16.10;99.90;;;;;;5048967;28;20485;-76
2021/08/01 07:17:50;;;;;;;5.47;4.70;;;16.10;99.90;;;;;;5048861;28;20466;-75
2021/08/01 07:20:19;;;;;;;5.10;4.60;;;16.10;99.90;;;;;;5048726;28;20512;-75
2021/08/01 07:22:46;;;;;;;5.47;4.77;;;16.10;99.90;;;;;;5048389;28;20513;-74
2021/08/01 07:25:12;;;;;;;4.83;4.43;;;16.10;99.90;;;;;;5048774;28;20483;-75
2021/08/01 07:27:39;;;;;;;5.20;4.57;;;16.10;99.90;;;;;;5048824;28;20577;-75
2021/08/01 07:30:07;;;;;;;5.03;4.00;;;16.20;99.90;;;;;;5048309;28;20470;-75
2021/08/01 07:32:33;;;;;;;5.50;4.20;;;16.20;99.90;;;;;;5048601;28;20487;-76
2021/08/01 07:35:00;;;;;;;6.50;4.43;;;16.20;99.90;;;;;;5048676;28;20483;-76
2021/08/01 07:37:28;;;;;;;6.33;4.07;;;16.20;99.90;;;;;;5048798;28;20982;-75
2021/08/01 07:39:55;;;;;;;4.33;4.03;;;16.20;99.90;;;;;;5048050;28;20455;-74
2021/08/01 07:42:21;;;;;;;5.20;4.80;;;16.20;99.90;;;;;;5048896;28;20455;-75
2021/08/01 07:44:49;;;;;;;5.33;4.30;;;16.20;99.90;;;;;;5048230;28;20479;-75
2021/08/01 07:47:17;;;;;;;5.03;4.40;;;16.20;99.90;;;;;;5049407;28;20463;-74
2021/08/01 07:49:44;;;;;;;5.00;4.50;;;16.20;99.90;;;;;;5049079;28;20463;-74
2021/08/01 07:52:11;;;;;;;5.93;4.77;;;16.20;99.90;;;;;;5048887;28;20495;-74
2021/08/01 07:54:39;;;;;;;4.90;4.13;;;16.20;99.90;;;;;;5048222;28;20466;-74
2021/08/01 07:57:06;;;;;;;4.40;4.00;;;16.20;99.90;;;;;;5048935;28;20474;-74
2021/08/01 07:59:33;;;;;;;4.20;3.80;;;16.20;99.90;;;;;;5049482;28;20474;-75
2021/08/01 08:02:00;;;;;;;3.93;3.60;;;16.20;99.90;;;;;;5048821;28;20466;-75
2021/08/01 08:04:27;;;;;;;4.53;4.07;;;16.20;99.90;;;;;;5049237;28;20842;-75
2021/08/01 08:06:54;;;;;;;4.40;4.00;;;16.20;99.90;;;;;;5048339;28;20870;-74
2021/08/01 08:09:21;;;;;;;4.20;3.90;;;16.20;99.90;;;;;;5048571;28;20948;-76
2021/08/01 08:11:49;;;;;;;4.77;4.37;;;16.20;99.90;;;;;;5048916;28;20468;-75
2021/08/01 08:14:16;;;;;;;5.17;4.17;;;16.20;99.90;;;;;;5048513;28;20487;-75
2021/08/01 08:16:43;;;;;;;4.33;3.93;;;16.20;99.90;;;;;;5048239;28;21007;-75
2021/08/01 08:19:09;;;;;;;6.60;4.47;;;16.20;99.90;;;;;;5048296;28;20494;-73
2021/08/01 08:21:36;;;;;;;6.07;4.20;;;16.20;99.90;;;;;;5048963;28;20466;-75
2021/08/01 08:24:03;;;;;;;5.40;3.90;;;16.20;99.90;;;;;;5048187;28;20459;-75
2021/08/01 08:26:29;;;;;;;4.73;4.23;;;16.20;99.90;;;;;;5052251;28;20483;-75
2021/08/01 08:28:57;;;;;;;4.43;4.03;;;16.20;99.90;;;;;;5052413;28;20463;-75
2021/08/01 08:31:24;;;;;;;4.73;4.00;;;16.20;99.90;;;;;;5051904;28;20467;-75
2021/08/01 08:33:51;;;;;;;4.47;4.07;;;16.20;99.90;;;;;;5051365;28;20491;-74
2021/08/01 08:36:18;;;;;;;6.00;4.20;;;16.20;99.90;;;;;;5052116;28;20483;-75
2021/08/01 08:38:44;;;;;;;4.50;4.10;;;16.20;99.90;;;;;;5052040;28;20463;-75
2021/08/01 08:41:13;;;;;;;4.60;4.17;;;16.20;99.90;;;;;;5051759;28;20463;-74
2021/08/01 08:43:40;;;;;;;5.50;5.00;;;16.30;99.90;;;;;;5051944;28;20467;-74
2021/08/01 08:46:10;;;;;;;5.00;3.90;;;16.30;99.90;;;;;;5051534;28;20855;-75
2021/08/01 08:48:37;;;;;;;7.20;5.13;;;16.30;99.90;;;;;;5052038;28;20455;-75
2021/08/01 08:51:08;;;;;;;4.50;4.10;;;16.20;99.90;;;;;;5051130;28;20545;-75
2021/08/01 08:53:40;;;;;;;4.07;3.57;;;16.20;99.90;;;;;;5051541;28;20498;-75
2021/08/01 08:56:08;;;;;;;4.00;3.67;;;16.20;99.90;;;;;;5051255;28;20486;-75
2021/08/01 08:58:37;;;;;;;4.00;3.60;;;16.20;99.90;;;;;;5051684;28;20544;-74
2021/08/01 09:01:07;;;;;;;4.23;3.83;;;16.20;99.90;;;;;;5050762;28;20506;-77
2021/08/01 09:03:36;;;;;;;3.70;3.40;;;16.20;99.90;;;;;;5051369;28;20456;-76
2021/08/01 09:06:04;;;;;;;4.17;3.77;;;16.20;99.90;;;;;;5051335;28;20487;-75
2021/08/01 09:08:31;;;;;;;4.00;3.27;;;16.30;99.90;;;;;;5051562;28;20467;-75
2021/08/01 09:10:58;;;;;;;5.93;3.80;;;16.30;99.90;;;;;;5051502;28;20467;-74
2021/08/01 09:13:44;;;;;;;3.83;3.20;;;16.20;99.90;;;;;;5051799;28;20483;-75
2021/08/01 09:16:11;;;;;;;3.87;3.57;;;16.30;99.90;;;;;;5051739;28;20475;-75
2021/08/01 09:18:40;;;;;;;4.07;3.17;;;16.30;99.90;;;;;;5051776;28;20467;-75
2021/08/01 09:21:07;;;;;;;3.27;3.00;;;16.30;99.90;;;;;;5051211;28;20955;-75
2021/08/01 09:23:35;;;;;;;3.50;3.20;;;16.30;99.90;;;;;;5051399;28;20842;-74
2021/08/01 09:26:04;;;;;;;3.63;3.33;;;16.30;99.90;;;;;;5050833;28;20486;-74
2021/08/01 09:28:31;;;;;;;4.00;3.60;;;16.40;99.90;;;;;;5051168;28;20467;-74
2021/08/01 09:31:00;;;;;;;4.37;3.97;;;16.40;99.90;;;;;;5050338;28;20471;-74
2021/08/01 09:33:35;;;;;;;5.17;3.97;;;16.40;99.90;;;;;;5051603;28;20487;-77
2021/08/01 09:36:11;;;;;;;3.87;3.57;;;16.50;99.90;;;;;;5049989;28;20852;-77
2021/08/01 09:38:46;;;;;;;4.03;3.63;;;16.50;99.90;;;;;;5051347;28;20827;-75
2021/08/01 09:41:13;;;;;;;4.17;3.83;;;16.50;99.90;;;;;;5050501;28;21238;-75
2021/08/01 09:43:48;;;;;;;4.60;3.90;;;16.50;99.90;;;;;;5050112;28;20466;-76
2021/08/01 09:46:15;;;;;;;4.47;3.20;;;16.50;99.90;;;;;;5049474;28;20478;-76
2021/08/01 09:48:42;;;;;;;3.40;3.10;;;16.50;99.90;;;;;;5049751;28;20460;-77
2021/08/01 09:51:11;;;;;;;3.67;3.30;;;16.40;99.90;;;;;;5049803;28;20467;-76
2021/08/01 09:53:40;;;;;;;3.90;3.50;;;16.40;99.90;;;;;;5050882;28;20855;-75
2021/08/01 09:56:18;;;;;;;4.40;3.53;;;16.40;99.90;;;;;;5050536;28;20572;-75
2021/08/01 09:58:47;;;;;;;3.60;3.30;;;16.50;99.90;;;;;;5051130;28;20456;-76
2021/08/01 10:01:14;;;;;;;4.13;3.37;;;16.50;99.90;;;;;;5056814;28;20883;-76
2021/08/01 10:03:43;;;;;;;3.97;3.50;;;16.40;99.90;;;;;;5070654;28;20529;-76
2021/08/01 10:06:13;;;;;;;4.37;3.40;;;16.40;99.90;;;;;;5070567;28;20482;-75
2021/08/01 10:08:41;;;;;;;4.10;3.70;;;16.40;99.90;;;;;;5070288;28;20465;-75
2021/08/01 10:11:13;;;;;;;4.13;3.83;;;16.40;99.90;;;;;;5069913;28;20474;-76
2021/08/01 10:13:42;;;;;;;4.10;3.70;;;16.50;99.90;;;;;;5070330;28;20921;-76
2021/08/01 10:16:10;;;;;;;4.07;3.67;;;16.60;99.90;;;;;;5070662;28;20632;-77
2021/08/01 10:18:37;;;;;;;4.33;3.93;;;16.70;99.90;;;;;;5071633;28;20817;-76
2021/08/01 10:21:05;;;;;;;3.90;3.43;;;16.60;99.90;;;;;;5070613;28;20462;-76
2021/08/01 10:23:36;;;;;;;4.23;3.87;;;16.60;99.90;;;;;;5070723;28;20508;-75
2021/08/01 10:26:06;;;;;;;3.97;3.60;;;16.60;99.90;;;;;;5071414;28;20482;-76
2021/08/01 10:28:35;;;;;;;4.10;3.70;;;16.60;99.90;;;;;;5070905;28;20462;-76
2021/08/01 10:31:03;;;;;;;3.70;3.40;;;16.60;99.90;;;;;;5069913;28;20458;-77
2021/08/01 10:33:39;;;;;;;3.93;3.63;;;16.60;99.90;;;;;;5070489;28;20486;-76
2021/08/01 10:36:07;;;;;;;4.53;3.77;;;16.70;99.90;;;;;;5070498;28;20497;-75
2021/08/01 10:38:38;;;;;;;3.67;3.37;;;16.80;99.90;;;;;;5070637;28;20459;-76
2021/08/01 10:41:07;;;;;;;4.00;3.60;;;16.90;99.90;;;;;;5069538;28;20506;-77
2021/08/01 10:43:37;;;;;;;4.60;4.17;;;16.90;99.90;;;;;;5070054;28;21219;-76
2021/08/01 10:46:04;;;;;;;3.80;3.50;;;16.90;99.90;;;;;;5071502;28;20478;-75
2021/08/01 10:48:32;;;;;;;4.53;3.87;;;17.00;99.90;;;;;;5069975;28;20462;-77
2021/08/01 10:50:59;;;;;;;5.57;4.30;;;17.10;99.90;;;;;;5069245;28;20454;-76
2021/08/01 10:53:27;;;;;;;5.00;4.37;;;17.10;99.90;;;;;;5070054;28;20509;-75
2021/08/01 10:56:31;;;;;;;4.43;4.13;;;17.20;99.90;;;;;;5069658;28;20490;-75
2021/08/01 10:58:59;;;;;;;5.30;4.00;;;17.30;99.90;;;;;;5070007;28;20481;-75
2021/08/01 11:01:26;;;;;;;4.10;3.80;;;17.20;99.90;;;;;;5069309;28;20564;-75
2021/08/01 11:04:28;;;;;;;4.27;3.90;;;17.30;99.90;;;;;;5069544;28;20523;-75
2021/08/01 11:06:55;;;;;;;4.50;4.10;;;17.30;99.90;;;;;;5069545;28;20588;-75
2021/08/01 11:09:21;;;;;;;4.47;4.07;;;17.30;99.90;;;;;;5069249;28;20470;-75
2021/08/01 11:12:22;;;;;;;5.13;4.40;;;17.30;99.90;;;;;;5069650;28;20455;-75
2021/08/01 11:14:51;;;;;;;6.97;4.87;;;17.20;99.90;;;;;;5070147;28;21005;-77
2021/08/01 11:17:19;;;;;;;4.33;4.03;;;17.30;99.90;;;;;;5069552;28;20874;-76
2021/08/01 11:19:46;;;;;;;4.80;4.30;;;17.40;99.90;;;;;;5068860;28;20549;-77
2021/08/01 11:22:46;;;;;;;4.70;3.90;;;17.50;99.90;;;;;;5069274;28;20462;-77
2021/08/01 11:25:20;;;;;;;5.50;4.90;;;17.60;99.90;;;;;;5069551;28;20886;-77
2021/08/01 11:28:21;;;;;;;4.73;4.07;;;17.70;99.90;;;;;;5069217;28;20843;-76
2021/08/01 11:31:22;;;;;;;4.53;4.13;;;17.70;99.90;;;;;;5068679;28;20879;-76
2021/08/01 11:33:51;;;;;;;4.87;4.40;;;17.90;99.90;;;;;;5123427;22;20491;-69
2021/08/01 11:36:28;;;;;;;4.80;4.40;;;18.00;99.90;;;;;;5070112;28;20470;-69
2021/08/01 11:39:06;;;;;;;5.40;4.30;;;17.90;99.90;;;;;;5069308;28;20987;-69
2021/08/01 11:41:41;;;;;;;4.73;4.33;;;17.90;99.90;;;;;;5069279;28;20968;-69
2021/08/01 11:44:20;;;;;;;4.60;4.13;;;17.90;99.90;;;;;;5068706;28;20458;-69
2021/08/01 11:47:03;;;;;;;5.53;4.77;;;18.00;99.90;;;;;;5069127;28;20462;-69
2021/08/01 11:49:33;;;;;;;7.23;4.57;;;18.10;99.90;;;;;;5068820;28;20531;-69
2021/08/01 11:52:02;;;;;;;6.00;4.33;;;18.10;99.90;;;;;;5069107;28;20462;-69
2021/08/01 11:54:31;;;;;;;5.13;4.63;;;18.10;99.90;;;;;;5068456;28;20483;-69
2021/08/01 11:57:00;;;;;;;5.07;4.50;;;18.10;99.90;;;;;;5068246;28;20626;-69
2021/08/01 11:59:27;;;;;;;8.17;5.13;;;18.00;99.90;;;;;;5068626;28;20849;-69
2021/08/01 12:01:55;;;;;;;4.80;4.40;;;18.10;99.90;;;;;;5072110;28;20549;-69
2021/08/01 12:04:23;;;;;;;5.60;5.03;;;18.10;99.90;;;;;;5072331;28;20462;-68
2021/08/01 12:06:53;;;;;;;6.83;4.83;;;18.10;99.90;;;;;;5071986;28;20458;-69
2021/08/01 12:09:24;;;;;;;4.80;4.40;;;18.10;99.90;;;;;;5071889;28;20912;-69
2021/08/01 12:11:51;;;;;;;6.30;4.13;;;18.10;99.90;;;;;;5071959;28;20462;-68
2021/08/01 12:14:19;;;;;;;4.87;4.47;;;18.10;99.90;;;;;;5072040;28;20482;-68
2021/08/01 12:16:54;;;;;;;4.53;4.13;;;18.10;99.90;;;;;;5072138;28;20630;-68
2021/08/01 12:19:23;;;;;;;4.57;4.17;;;18.10;99.90;;;;;;5071698;28;20462;-69
2021/08/01 12:21:52;;;;;;;4.70;4.40;;;18.10;99.90;;;;;;5071950;28;20458;-68
2021/08/01 12:24:31;;;;;;;5.03;4.63;;;18.00;99.90;;;;;;5071772;28;20458;-69
2021/08/01 12:26:59;;;;;;;5.30;4.63;;;18.00;99.90;;;;;;5071861;28;20485;-69
2021/08/01 12:29:31;;;;;;;5.23;4.70;;;18.00;99.90;;;;;;5071263;28;20494;-68
2021/08/01 12:31:58;;;;;;;5.50;4.60;;;17.90;99.90;;;;;;5071732;28;20950;-69
2021/08/01 12:34:26;;;;;;;5.50;5.00;;;17.90;99.90;;;;;;5071318;28;20482;-69
2021/08/01 12:36:53;;;;;;;5.03;4.63;;;17.80;99.90;;;;;;5071441;28;20466;-68
2021/08/01 12:39:22;;;;;;;6.07;4.50;;;17.80;99.90;;;;;;5071165;28;20462;-69
2021/08/01 12:41:49;;;;;;;5.37;4.87;;;17.80;99.90;;;;;;5071298;28;20840;-69
2021/08/01 12:44:17;;;;;;;4.80;4.40;;;17.70;99.90;;;;;;5071611;28;20498;-69
2021/08/01 12:46:44;;;;;;;4.60;4.20;;;17.70;99.90;;;;;;5071693;28;20462;-68
2021/08/01 12:49:11;;;;;;;5.00;4.60;;;17.70;99.90;;;;;;5070834;28;20466;-69
2021/08/01 12:51:45;;;;;;;5.10;4.60;;;17.80;99.90;;;;;;5071305;28;20462;-69
2021/08/01 12:54:13;;;;;;;5.77;5.10;;;17.90;99.90;;;;;;5071268;28;20624;-67
2021/08/01 12:57:04;;;;;;;5.03;4.50;;;18.10;99.90;;;;;;5071204;28;20482;-69